Due to severe server failure at the provider, not all demo sites are operational. Will take some days to rebuilt everything.

Demonstration site - Click on the  for more information

This is an optional block. Switch it on/off in your settings-file: $SITE['bannerTop'] = false; or $SITE['bannerBottom'] = false;

You can display ads, any other important text or photo’s using text / html or PHP code.

You can place one or more at the top and or bottom and it can all be different for content / size .



Visit our other weather sites:

Template documentation
and downloads

And another site



Nearby METAR Reports

   
EBAW - Antwerp
Updated: 02-03-2021 17:20
Clear  
Clear  
   Wind: SE 7.4 km/h
Wind: SE 7.4 km/h
Temperature: 14°C
Dew Point: 7°C
Humidity: 63%
Barometer: 1028 hPa
Visibility: More than 10 km
Cloud details: Clear ft
EBAW 021620Z 14004KT CAVOK 14/07 Q1028 NOSIG
EBLG - Liège
Updated: 02-03-2021 17:20
Clear  
Clear  
   Wind: South 11.1 km/h
Wind: South 11.1 km/h
Temperature: 17°C
Dew Point: 2°C
Humidity: 37%
Barometer: 1028 hPa
Visibility: More than 10 km
Cloud details: Clear ft
EBLG 021620Z 19006KT 160V220 CAVOK 17/02 Q1028 NOSIG
EBCV - Mons/Bergen
Updated: 02-03-2021 16:55
Clear  
Clear  
   Wind: WNW 5.6 km/h
Wind: WNW 5.6 km/h
Temperature: 15°C
Dew Point: 8°C
Humidity: 63%
Barometer: 1028 hPa
Clouds: Clear
Visibility: More than 10 km
Cloud details: Clear ft
EBCV 021555Z AUTO 30003KT 9999 NCD 15/08 Q1028 BLU
EHBK - Maastricht
Updated: 02-03-2021 17:25
Clear  
Clear  
   Wind: East 11.1 km/h
Wind: East 11.1 km/h
Temperature: 15°C
Dew Point: 5°C
Humidity: 51%
Barometer: 1028 hPa
Clouds: Clear
Visibility: More than 10 km
Cloud details: Clear ft
EHBK 021625Z AUTO 08006KT 9999 NCD 15/05 Q1028 NOSIG
ELLX - Luxemburg
Updated: 02-03-2021 17:20
Clear  
Clear  
   Wind: SE 11.1 km/h
Wind: SE 11.1 km/h
Temperature: 14°C
Dew Point: 2°C
Humidity: 44%
Barometer: 1029 hPa
Visibility: More than 10 km
Cloud details: Clear ft
ELLX 021620Z 14006KT 120V180 CAVOK 14/02 Q1029 NOSIG
EBOS - Oostende
Updated: 02-03-2021 17:20
Clear  
Clear  
   Wind: North 9.3 km/h
Wind: North 9.3 km/h
Temperature: 8°C
Wind Chill: 7°C
Dew Point: 3°C
Humidity: 71%
Barometer: 1029 hPa
Visibility: More than 10 km
Cloud details: Clear ft
EBOS 021620Z 01005KT CAVOK 08/03 Q1029 NOSIG

Script developed by  Saratoga-weather.org Adapted for the template by  Weerstation Leuven

This is an optional block. Switch it on/off in your settings-file: $SITE['bannerTop'] = false; or $SITE['bannerBottom'] = false;

You can display ads, any other important text or photo’s using text / html or PHP code.

You can place one or more at the top and or bottom and it can all be different for content / size .